createdAt,value
2022-09-30T00:01:39.847Z,5.47
2022-09-30T00:04:09.360Z,6.50
2022-09-30T00:06:39.102Z,5.85
2022-09-30T00:09:07.603Z,5.73
2022-09-30T00:11:38.754Z,8.27
2022-09-30T00:14:09.276Z,6.27
2022-09-30T00:16:38.872Z,7.53
2022-09-30T00:19:07.629Z,6.37
2022-09-30T00:21:35.831Z,6.20
2022-09-30T00:24:06.588Z,5.97
2022-09-30T00:26:35.385Z,7.77
2022-09-30T00:29:04.693Z,5.20
2022-09-30T00:31:35.351Z,7.70
2022-09-30T00:34:11.430Z,7.10
2022-09-30T00:36:44.261Z,7.60
2022-09-30T00:39:16.322Z,7.13
2022-09-30T00:41:46.886Z,7.87
2022-09-30T00:44:44.842Z,7.97
2022-09-30T00:47:37.807Z,5.83
2022-09-30T00:50:15.344Z,8.93
2022-09-30T00:52:45.533Z,7.93
2022-09-30T00:55:25.990Z,10.70
2022-09-30T00:57:54.276Z,7.57
2022-09-30T01:00:22.563Z,7.40
2022-09-30T01:02:51.356Z,7.83
2022-09-30T01:05:20.334Z,6.53
2022-09-30T01:07:50.315Z,5.97
2022-09-30T01:10:20.251Z,7.20
2022-09-30T01:12:48.727Z,7.73
2022-09-30T01:15:17.604Z,7.03
2022-09-30T01:17:55.231Z,6.90
2022-09-30T01:21:01.758Z,7.33
2022-09-30T01:24:11.488Z,6.70
2022-09-30T01:27:03.829Z,8.00
2022-09-30T01:30:04.849Z,8.97
2022-09-30T01:32:57.788Z,7.90
2022-09-30T01:35:36.507Z,8.87
2022-09-30T01:38:13.982Z,10.93
2022-09-30T01:40:48.455Z,8.40
2022-09-30T01:43:26.021Z,8.17
2022-09-30T01:46:00.007Z,9.03
2022-09-30T01:48:37.834Z,9.47
2022-09-30T01:51:10.859Z,11.40
2022-09-30T01:53:43.640Z,9.80
2022-09-30T01:56:19.689Z,9.67
2022-09-30T01:58:55.518Z,8.97
2022-09-30T02:01:31.728Z,9.37
2022-09-30T02:04:06.883Z,8.77
2022-09-30T02:06:40.471Z,8.50
2022-09-30T02:09:14.598Z,10.00
2022-09-30T02:11:43.842Z,11.43
2022-09-30T02:14:17.827Z,10.47
2022-09-30T02:16:50.928Z,9.07
2022-09-30T02:19:25.527Z,10.60
2022-09-30T02:21:58.058Z,8.70
2022-09-30T02:24:29.513Z,8.00
2022-09-30T02:27:00.628Z,9.60
2022-09-30T02:29:32.734Z,8.23
2022-09-30T02:32:07.323Z,9.03
2022-09-30T02:34:41.821Z,10.00
2022-09-30T02:37:17.623Z,13.10
2022-09-30T02:39:52.650Z,9.63
2022-09-30T02:42:26.759Z,9.83
2022-09-30T02:44:57.646Z,10.50
2022-09-30T02:47:32.149Z,11.83
2022-09-30T02:50:07.598Z,10.80
2022-09-30T02:52:46.211Z,11.77
2022-09-30T02:55:21.098Z,8.83
2022-09-30T02:58:01.093Z,9.40
2022-09-30T03:00:29.966Z,8.50
2022-09-30T03:03:01.317Z,11.00
2022-09-30T03:05:30.803Z,11.70
2022-09-30T03:07:59.111Z,11.40
2022-09-30T03:10:27.256Z,11.13
2022-09-30T03:13:11.759Z,9.23
2022-09-30T03:15:53.067Z,9.73
2022-09-30T03:18:39.060Z,11.80
2022-09-30T03:21:23.763Z,8.70
2022-09-30T03:24:24.482Z,9.10
2022-09-30T03:27:04.420Z,11.53
2022-09-30T03:29:43.524Z,9.60
2022-09-30T03:32:23.976Z,9.47
2022-09-30T03:35:04.646Z,9.10
2022-09-30T03:37:48.069Z,10.13
2022-09-30T03:40:24.587Z,10.13
2022-09-30T03:42:57.328Z,10.33
2022-09-30T03:45:32.024Z,10.13
2022-09-30T03:48:05.874Z,8.80
2022-09-30T03:50:36.591Z,9.93
2022-09-30T03:53:16.633Z,12.27
2022-09-30T03:55:48.973Z,9.23
2022-09-30T03:58:17.588Z,8.37
2022-09-30T04:00:50.209Z,10.97
2022-09-30T04:03:19.715Z,9.43
2022-09-30T04:05:48.520Z,9.43
2022-09-30T04:08:18.156Z,10.63
2022-09-30T04:10:46.600Z,8.80
2022-09-30T04:13:14.815Z,11.80
2022-09-30T04:15:43.480Z,8.83
2022-09-30T04:18:42.460Z,9.77
2022-09-30T04:21:13.054Z,11.50
2022-09-30T04:23:58.433Z,8.10
2022-09-30T04:26:31.830Z,9.97
2022-09-30T04:29:33.614Z,8.57
2022-09-30T04:32:34.331Z,8.00
2022-09-30T04:35:09.003Z,8.27
2022-09-30T04:37:37.262Z,10.97
2022-09-30T09:05:29.641Z,23.63
2022-09-30T09:08:05.989Z,21.47
2022-09-30T09:10:43.714Z,19.00
2022-09-30T09:13:37.655Z,20.50
2022-09-30T09:16:11.991Z,20.13
2022-09-30T09:18:47.969Z,19.43
2022-09-30T09:21:33.477Z,22.03
2022-09-30T09:24:04.119Z,21.77
2022-09-30T09:26:37.044Z,21.20
2022-09-30T09:29:17.203Z,20.37
2022-09-30T09:31:45.540Z,22.60
2022-09-30T09:34:14.174Z,22.20
2022-09-30T09:36:53.282Z,22.23
2022-09-30T09:39:51.501Z,23.13
2022-09-30T09:42:36.854Z,19.90
2022-09-30T09:45:10.537Z,21.33
2022-09-30T09:47:38.744Z,20.00
2022-09-30T09:50:17.765Z,22.77
2022-09-30T09:53:03.182Z,25.23
2022-09-30T09:55:31.199Z,21.23
2022-09-30T09:58:11.284Z,19.13
2022-09-30T10:00:56.820Z,23.27
2022-09-30T10:03:28.174Z,24.10
2022-09-30T10:06:06.589Z,25.47
2022-09-30T10:08:38.789Z,25.07
2022-09-30T10:11:08.596Z,24.40
2022-09-30T10:13:44.328Z,24.07
2022-09-30T10:16:30.062Z,23.17
2022-09-30T10:18:58.662Z,26.23
2022-09-30T10:21:28.295Z,25.33
2022-09-30T10:23:59.961Z,23.70
2022-09-30T10:26:29.497Z,23.10
2022-09-30T10:29:00.939Z,24.77
2022-09-30T10:31:31.940Z,21.00
2022-09-30T10:34:05.373Z,21.97
2022-09-30T10:36:36.607Z,20.23
2022-09-30T10:39:08.784Z,20.97
2022-09-30T10:41:39.379Z,17.20
2022-09-30T10:44:14.875Z,19.17
2022-09-30T10:46:44.854Z,17.27
2022-09-30T10:49:28.500Z,15.50
2022-09-30T10:51:57.819Z,20.73
2022-09-30T10:54:47.943Z,18.90
2022-09-30T10:57:17.562Z,16.23
2022-09-30T10:59:46.914Z,19.30
2022-09-30T11:02:24.806Z,17.10
2022-09-30T11:05:01.276Z,15.57
2022-09-30T11:07:41.063Z,15.37
2022-09-30T11:10:32.981Z,15.90
2022-09-30T11:13:09.457Z,13.33
2022-09-30T11:15:46.721Z,16.43
2022-09-30T11:18:22.946Z,13.83
2022-09-30T11:29:46.791Z,10.47
2022-09-30T11:32:52.432Z,14.00
2022-09-30T11:35:45.811Z,12.33
2022-09-30T11:38:57.481Z,13.43
2022-09-30T11:41:35.240Z,13.53
2022-09-30T11:44:30.541Z,14.10
2022-09-30T11:47:14.962Z,10.93
2022-09-30T11:50:11.319Z,11.97
2022-09-30T11:53:07.792Z,12.80
2022-09-30T11:56:03.691Z,10.07
2022-09-30T11:58:45.020Z,10.97
2022-09-30T12:01:26.916Z,11.43
2022-09-30T12:04:06.738Z,11.97
2022-09-30T12:06:54.334Z,9.10
2022-09-30T12:09:44.320Z,11.97
2022-09-30T12:12:32.851Z,12.70
2022-09-30T12:18:41.749Z,10.50
2022-09-30T12:21:21.371Z,10.60
2022-09-30T12:23:56.989Z,11.07
2022-09-30T12:26:31.209Z,9.17
2022-09-30T12:29:24.994Z,8.90
2022-09-30T12:32:32.174Z,8.73
2022-09-30T12:35:33.421Z,11.97
2022-09-30T12:38:24.776Z,7.93
2022-09-30T12:41:12.252Z,8.50
2022-09-30T12:44:09.651Z,10.07
2022-09-30T12:46:54.047Z,7.20
2022-09-30T12:49:29.305Z,10.40
2022-09-30T12:52:09.188Z,8.67
2022-09-30T12:54:41.813Z,8.00
2022-09-30T12:57:11.270Z,10.23
2022-09-30T12:59:48.677Z,5.77
2022-09-30T13:02:34.624Z,7.13
2022-09-30T13:05:40.221Z,8.50
2022-09-30T13:08:26.117Z,6.70
2022-09-30T13:10:59.460Z,4.63
2022-09-30T13:13:32.384Z,6.43
2022-09-30T13:16:06.814Z,5.80
2022-09-30T13:19:03.786Z,4.83
2022-09-30T13:21:32.482Z,4.83
2022-09-30T13:24:05.809Z,6.40
2022-09-30T13:26:40.222Z,7.23
2022-09-30T13:29:48.569Z,5.47
2022-09-30T13:32:34.263Z,4.60
2022-09-30T13:35:03.109Z,4.10
2022-09-30T13:37:44.722Z,6.80
2022-09-30T13:40:43.599Z,5.87
2022-09-30T13:43:22.159Z,6.53
2022-09-30T13:45:54.594Z,6.47
2022-09-30T13:48:31.250Z,5.20
2022-09-30T13:51:02.010Z,5.63
2022-09-30T13:53:34.893Z,6.30
2022-09-30T13:56:08.569Z,5.60
2022-09-30T13:58:53.623Z,6.13
2022-09-30T14:01:47.269Z,6.70
2022-09-30T14:04:37.581Z,4.40
2022-09-30T14:07:14.253Z,7.53
2022-09-30T14:09:56.301Z,7.77
2022-09-30T14:13:03.184Z,5.00
2022-09-30T14:15:50.893Z,5.60
2022-09-30T14:18:42.586Z,4.97
2022-09-30T14:21:27.107Z,7.00
2022-09-30T14:24:04.326Z,8.00
2022-09-30T14:26:48.651Z,7.30
2022-09-30T14:29:27.322Z,8.70
2022-09-30T14:31:56.697Z,5.70
2022-09-30T14:34:29.673Z,4.43
2022-09-30T14:36:58.115Z,6.97
2022-09-30T14:39:32.068Z,6.63
2022-09-30T14:42:05.398Z,7.23
2022-09-30T14:44:36.982Z,5.40
2022-09-30T14:47:06.670Z,5.90
2022-09-30T14:49:38.737Z,7.10
2022-09-30T14:52:07.675Z,6.30
2022-09-30T14:54:35.912Z,5.67
2022-09-30T14:57:04.553Z,4.30
2022-09-30T14:59:42.104Z,4.30
2022-09-30T15:02:18.923Z,7.13
2022-09-30T15:04:51.607Z,7.90
2022-09-30T15:07:22.516Z,6.37
2022-09-30T15:09:54.331Z,5.17
2022-09-30T15:12:26.921Z,6.23
2022-09-30T15:14:58.750Z,6.83
2022-09-30T15:17:30.046Z,5.13
2022-09-30T15:20:00.037Z,8.63
2022-09-30T15:22:31.250Z,5.67
2022-09-30T15:25:01.219Z,4.07
2022-09-30T15:27:45.057Z,6.40
2022-09-30T15:30:29.413Z,6.73
2022-09-30T15:33:03.152Z,6.97
2022-09-30T15:35:34.659Z,4.03
2022-09-30T15:38:17.638Z,3.67
2022-09-30T15:40:50.638Z,4.07
2022-09-30T15:43:34.442Z,5.57
2022-09-30T15:46:31.025Z,4.20
2022-09-30T15:49:01.763Z,3.97
2022-09-30T15:51:37.886Z,4.13
2022-09-30T15:54:31.945Z,4.73
2022-09-30T15:57:06.478Z,4.93
2022-09-30T16:00:00.243Z,3.27
2022-09-30T16:02:31.482Z,3.20
2022-09-30T16:05:02.145Z,5.53
2022-09-30T16:07:32.566Z,2.73
2022-09-30T16:10:01.130Z,6.77
2022-09-30T16:12:33.736Z,4.43
2022-09-30T16:15:08.553Z,2.80
2022-09-30T16:17:40.309Z,2.17
2022-09-30T16:20:23.847Z,4.07
2022-09-30T16:22:55.077Z,6.30
2022-09-30T16:25:26.616Z,3.90
2022-09-30T16:27:59.406Z,2.10
2022-09-30T16:30:32.260Z,2.67
2022-09-30T16:33:10.139Z,3.77
2022-09-30T16:35:57.680Z,6.97
2022-09-30T16:38:26.123Z,5.67
2022-09-30T16:40:54.755Z,4.17
2022-09-30T16:43:24.855Z,3.00
2022-09-30T16:45:53.209Z,4.33
2022-09-30T16:48:26.201Z,4.67
2022-09-30T16:50:59.554Z,3.80
2022-09-30T16:53:27.803Z,3.53
2022-09-30T16:55:57.184Z,2.87
2022-09-30T16:58:25.566Z,4.33
2022-09-30T17:00:53.916Z,4.17
2022-09-30T17:03:22.739Z,4.07
2022-09-30T17:05:53.001Z,6.30
2022-09-30T17:08:22.571Z,7.53
2022-09-30T17:10:51.193Z,5.20
2022-09-30T17:13:20.094Z,7.13
2022-09-30T17:15:52.457Z,4.63
2022-09-30T17:18:20.860Z,6.40
2022-09-30T17:20:52.826Z,4.13
2022-09-30T17:23:24.474Z,3.90
2022-09-30T17:25:53.774Z,3.97
2022-09-30T17:28:22.628Z,5.10
2022-09-30T17:30:50.675Z,7.77
2022-09-30T17:33:19.840Z,7.50
2022-09-30T17:36:02.233Z,5.43
2022-09-30T17:38:32.445Z,4.70
2022-09-30T17:41:18.446Z,3.97
2022-09-30T17:43:46.756Z,4.43
2022-09-30T17:46:16.121Z,5.53
2022-09-30T17:48:44.111Z,4.13
2022-09-30T17:51:12.264Z,8.37
2022-09-30T17:53:42.180Z,4.93
2022-09-30T17:56:17.157Z,5.47
2022-09-30T17:58:47.966Z,4.00
2022-09-30T18:01:17.588Z,5.23
2022-09-30T18:03:53.178Z,3.80
2022-09-30T18:06:21.631Z,5.07
2022-09-30T18:08:54.413Z,4.33
2022-09-30T18:11:29.453Z,2.90
2022-09-30T18:14:02.826Z,3.83
2022-09-30T18:16:33.871Z,3.70
2022-09-30T18:19:04.300Z,3.80
2022-09-30T18:21:33.729Z,6.63
2022-09-30T18:24:06.721Z,5.73
2022-09-30T18:26:36.020Z,4.37
2022-09-30T18:29:08.320Z,5.53
2022-09-30T18:31:48.106Z,5.37
2022-09-30T18:34:36.047Z,6.07
2022-09-30T18:37:07.246Z,5.40
2022-09-30T18:39:41.910Z,4.53
2022-09-30T18:42:39.613Z,6.50
2022-09-30T18:45:25.476Z,5.00
2022-09-30T18:47:59.188Z,5.10
2022-09-30T18:51:23.773Z,3.03
